createdAt,value
2022-09-16T00:00:46.878Z,19.96
2022-09-16T00:03:15.742Z,19.94
2022-09-16T00:05:47.667Z,19.93
2022-09-16T00:08:14.561Z,19.92
2022-09-16T00:10:41.260Z,19.92
2022-09-16T00:13:07.549Z,19.91
2022-09-16T00:15:33.835Z,19.91
2022-09-16T00:18:00.142Z,19.89
2022-09-16T00:20:26.542Z,19.89
2022-09-16T00:22:52.980Z,19.89
2022-09-16T00:25:19.321Z,19.90
2022-09-16T00:27:48.520Z,19.89
2022-09-16T00:30:15.365Z,19.88
2022-09-16T00:32:41.667Z,19.89
2022-09-16T00:35:08.060Z,19.89
2022-09-16T00:37:34.762Z,19.88
2022-09-16T00:40:01.249Z,19.87
2022-09-16T00:42:27.620Z,19.86
2022-09-16T00:45:06.002Z,19.80
2022-09-16T00:47:41.788Z,19.77
2022-09-16T00:50:12.500Z,19.77
2022-09-16T00:52:41.107Z,19.74
2022-09-16T00:55:09.275Z,19.72
2022-09-16T00:57:36.682Z,19.73
2022-09-16T01:00:05.300Z,19.67
2022-09-16T01:18:15.193Z,19.48
2022-09-16T01:21:02.884Z,19.44
2022-09-16T01:24:07.689Z,19.44
2022-09-16T01:27:04.842Z,19.41
2022-09-16T01:30:06.732Z,19.38
2022-09-16T01:32:53.423Z,19.38
2022-09-16T01:35:41.882Z,19.35
2022-09-16T01:38:20.266Z,19.38
2022-09-16T01:40:54.222Z,19.41
2022-09-16T01:43:43.242Z,19.42
2022-09-16T01:46:12.607Z,19.38
2022-09-16T01:48:53.776Z,19.34
2022-09-16T01:51:48.018Z,19.32
2022-09-16T01:54:21.693Z,19.30
2022-09-16T01:56:58.224Z,19.30
2022-09-16T01:59:48.691Z,19.29
2022-09-16T02:02:31.393Z,19.30
2022-09-16T02:05:00.990Z,19.33
2022-09-16T02:07:33.420Z,19.34
2022-09-16T02:10:07.952Z,19.34
2022-09-16T02:12:40.984Z,19.38
2022-09-16T02:15:11.326Z,19.38
2022-09-16T02:17:44.577Z,19.39
2022-09-16T02:20:17.267Z,19.40
2022-09-16T02:22:46.454Z,19.43
2022-09-16T02:25:15.648Z,19.41
2022-09-16T02:27:44.454Z,19.42
2022-09-16T02:30:16.647Z,19.40
2022-09-16T02:32:50.412Z,19.38
2022-09-16T02:35:21.331Z,19.38
2022-09-16T02:37:58.182Z,19.39
2022-09-16T02:40:30.322Z,19.40
2022-09-16T02:42:58.245Z,19.41
2022-09-16T02:45:33.929Z,19.41
2022-09-16T02:48:09.426Z,19.38
2022-09-16T02:50:50.945Z,19.36
2022-09-16T02:53:26.281Z,19.35
2022-09-16T02:56:02.058Z,19.33
2022-09-16T02:58:29.614Z,19.33
2022-09-16T03:00:58.194Z,19.33
2022-09-16T03:03:24.433Z,19.35
2022-09-16T03:06:06.077Z,19.34
2022-09-16T03:08:34.251Z,19.35
2022-09-16T03:11:14.224Z,19.33
2022-09-16T03:14:18.663Z,19.29
2022-09-16T03:17:06.498Z,19.30
2022-09-16T03:20:02.551Z,19.29
2022-09-16T03:22:34.963Z,19.31
2022-09-16T03:25:26.143Z,19.26
2022-09-16T03:28:00.725Z,19.26
2022-09-16T03:30:29.158Z,19.27
2022-09-16T03:33:05.677Z,19.24
2022-09-16T03:35:40.169Z,19.26
2022-09-16T03:38:08.240Z,19.27
2022-09-16T03:40:36.146Z,19.29
2022-09-16T03:43:11.724Z,19.27
2022-09-16T03:45:38.258Z,19.31
2022-09-16T03:48:04.577Z,19.29
2022-09-16T03:50:30.869Z,19.27
2022-09-16T03:52:57.173Z,19.27
2022-09-16T03:55:23.468Z,19.29
2022-09-16T03:57:49.765Z,19.26
2022-09-16T04:00:16.129Z,19.26
2022-09-16T04:02:42.486Z,19.24
2022-09-16T04:05:09.407Z,19.21
2022-09-16T04:07:35.760Z,19.19
2022-09-16T04:10:02.220Z,19.19
2022-09-16T04:12:29.146Z,19.16
2022-09-16T04:14:55.527Z,19.16
2022-09-16T04:17:22.016Z,19.15
2022-09-16T04:19:48.320Z,19.14
2022-09-16T04:22:14.644Z,19.13
2022-09-16T04:24:41.087Z,19.13
2022-09-16T04:27:07.364Z,19.12
2022-09-16T04:29:33.699Z,19.12
2022-09-16T04:31:59.990Z,19.12
2022-09-16T04:34:26.766Z,19.12
2022-09-16T04:36:53.056Z,19.12
2022-09-16T04:39:19.479Z,19.10
2022-09-16T04:41:45.788Z,19.08
2022-09-16T04:44:12.107Z,19.06
2022-09-16T04:46:38.464Z,19.05
2022-09-16T04:49:04.895Z,19.03
2022-09-16T04:51:32.182Z,19.05
2022-09-16T04:53:59.963Z,19.05
2022-09-16T04:56:31.619Z,19.05
2022-09-16T04:59:00.465Z,19.04
2022-09-16T05:01:29.391Z,19.04
2022-09-16T05:03:59.071Z,19.02
2022-09-16T05:06:28.434Z,19.02
2022-09-16T05:08:56.499Z,19.00
2022-09-16T05:11:26.048Z,18.98
2022-09-16T05:13:52.895Z,18.95
2022-09-16T05:16:21.953Z,18.93
2022-09-16T05:18:50.534Z,18.91
2022-09-16T05:21:19.193Z,18.86
2022-09-16T05:23:47.091Z,18.87
2022-09-16T05:26:19.647Z,18.87
2022-09-16T05:28:46.290Z,18.85
2022-09-16T05:31:15.665Z,18.81
2022-09-16T05:33:44.629Z,18.79
2022-09-16T05:36:16.479Z,18.78
2022-09-16T05:38:59.041Z,18.78
2022-09-16T05:41:29.861Z,18.79
2022-09-16T05:43:59.258Z,18.79
2022-09-16T05:46:25.737Z,18.82
2022-09-16T05:48:52.157Z,18.84
2022-09-16T05:51:20.920Z,18.85
2022-09-16T05:53:48.811Z,18.87
2022-09-16T05:56:17.909Z,18.87
2022-09-16T05:58:45.154Z,18.89
2022-09-16T06:01:14.921Z,18.87
2022-09-16T06:03:42.872Z,18.85
2022-09-16T06:06:25.884Z,18.77
2022-09-16T06:08:54.072Z,18.73
2022-09-16T06:11:20.539Z,18.66
2022-09-16T06:13:47.092Z,18.60
2022-09-16T06:16:16.360Z,18.53
2022-09-16T06:18:42.683Z,18.45
2022-09-16T06:21:11.579Z,18.39
2022-09-16T06:23:39.623Z,18.30
2022-09-16T06:26:08.996Z,18.22
2022-09-16T06:28:35.955Z,18.17
2022-09-16T06:31:17.248Z,18.08
2022-09-16T06:33:44.501Z,18.03
2022-09-16T06:36:17.643Z,17.98
2022-09-16T06:38:45.472Z,17.97
2022-09-16T06:41:13.469Z,17.95
2022-09-16T06:43:40.429Z,17.95
2022-09-16T06:46:18.991Z,17.93
2022-09-16T06:48:50.996Z,17.93
2022-09-16T06:51:22.797Z,17.95
2022-09-16T06:53:50.757Z,17.99
2022-09-16T06:56:19.906Z,18.02
2022-09-16T06:58:50.166Z,18.07
2022-09-16T07:01:19.062Z,18.12
2022-09-16T07:03:48.236Z,18.17
2022-09-16T07:06:15.807Z,18.23
2022-09-16T07:08:42.678Z,18.30
2022-09-16T07:11:12.264Z,18.37
2022-09-16T07:13:39.569Z,18.45
2022-09-16T07:16:13.616Z,18.51
2022-09-16T07:18:41.231Z,18.60
2022-09-16T07:21:09.329Z,18.64
2022-09-16T07:23:37.731Z,18.70
2022-09-16T07:26:10.389Z,18.74
2022-09-16T07:28:37.893Z,18.83
2022-09-16T07:31:09.395Z,18.89
2022-09-16T07:33:38.412Z,18.99
2022-09-16T07:36:06.320Z,19.08
2022-09-16T07:38:33.005Z,19.15
2022-09-16T07:41:13.943Z,19.19
2022-09-16T07:43:42.207Z,19.26
2022-09-16T07:46:10.723Z,19.29
2022-09-16T07:48:37.542Z,19.33
2022-09-16T07:51:07.821Z,19.38
2022-09-16T07:53:35.104Z,19.39
2022-09-16T07:56:10.225Z,19.40
2022-09-16T07:58:38.111Z,19.47
2022-09-16T08:01:05.725Z,19.53
2022-09-16T08:03:36.767Z,19.62
2022-09-16T08:06:05.902Z,19.72
2022-09-16T08:08:32.692Z,19.85
2022-09-16T08:11:00.637Z,19.97
2022-09-16T08:13:30.053Z,20.11
2022-09-16T08:16:01.541Z,20.22
2022-09-16T08:18:28.243Z,20.33
2022-09-16T08:20:54.565Z,20.42
2022-09-16T08:23:20.885Z,20.49
2022-09-16T08:25:47.278Z,20.57
2022-09-16T08:28:15.455Z,20.62
2022-09-16T08:30:42.926Z,20.66
2022-09-16T08:33:10.122Z,20.71
2022-09-16T08:35:36.758Z,20.76
2022-09-16T08:38:03.140Z,20.81
2022-09-16T08:40:34.302Z,20.87
2022-09-16T08:43:21.543Z,20.93
2022-09-16T08:46:17.194Z,21.04
2022-09-16T08:48:47.838Z,21.10
2022-09-16T08:51:19.762Z,21.15
2022-09-16T08:53:54.372Z,21.21
2022-09-16T08:56:24.919Z,21.29
2022-09-16T08:58:55.267Z,21.36
2022-09-16T09:01:35.057Z,21.40
2022-09-16T09:04:02.845Z,21.47
2022-09-16T09:06:53.709Z,21.51
2022-09-16T09:09:45.038Z,21.57
2022-09-16T09:12:41.317Z,21.62
2022-09-16T09:15:14.810Z,21.70
2022-09-16T09:17:56.287Z,21.74
2022-09-16T09:20:41.480Z,21.79
2022-09-16T09:23:26.551Z,21.86
2022-09-16T09:26:03.842Z,21.91
2022-09-16T09:29:12.066Z,21.95
2022-09-16T09:31:39.498Z,22.08
2022-09-16T09:34:34.917Z,22.16
2022-09-16T09:37:09.109Z,22.27
2022-09-16T09:39:45.371Z,22.36
2022-09-16T09:42:16.209Z,22.47
2022-09-16T09:45:07.634Z,22.52
2022-09-16T09:47:40.985Z,22.62
2022-09-16T09:50:16.354Z,22.66
2022-09-16T09:53:04.423Z,22.64
2022-09-16T09:55:33.866Z,22.69
2022-09-16T09:58:08.913Z,22.70
2022-09-16T10:00:35.368Z,22.77
2022-09-16T10:03:10.247Z,22.74
2022-09-16T10:05:36.718Z,22.75
2022-09-16T10:08:29.425Z,22.68
2022-09-16T10:10:59.455Z,22.65
2022-09-16T10:13:27.811Z,22.57
2022-09-16T10:16:06.978Z,22.50
2022-09-16T10:18:33.761Z,22.42
2022-09-16T10:21:10.812Z,22.27
2022-09-16T10:23:39.005Z,22.21
2022-09-16T10:26:22.614Z,22.13
2022-09-16T10:28:57.970Z,22.12
2022-09-16T10:31:30.505Z,22.15
2022-09-16T10:34:01.203Z,22.21
2022-09-16T10:36:31.979Z,22.25
2022-09-16T10:39:04.825Z,22.31
2022-09-16T10:41:47.714Z,22.38
2022-09-16T10:44:23.834Z,22.47
2022-09-16T10:47:05.434Z,22.52
2022-09-16T10:49:38.302Z,22.56
2022-09-16T10:52:14.199Z,22.53
2022-09-16T10:54:40.645Z,22.44
2022-09-16T10:57:29.590Z,22.22
2022-09-16T11:00:20.475Z,21.92
2022-09-16T11:03:25.400Z,21.58
2022-09-16T11:06:20.221Z,21.07
2022-09-16T11:08:55.578Z,20.73
2022-09-16T11:11:55.989Z,20.35
2022-09-16T11:14:35.889Z,20.10
2022-09-16T11:17:41.560Z,19.94
2022-09-16T11:20:38.995Z,19.86
2022-09-16T11:23:08.216Z,19.87
2022-09-16T11:26:00.534Z,19.82
2022-09-16T11:29:05.499Z,19.88
2022-09-16T11:32:00.894Z,19.92
2022-09-16T11:35:02.755Z,19.96
2022-09-16T11:38:18.266Z,20.03
2022-09-16T11:41:05.206Z,20.12
2022-09-16T11:44:10.154Z,20.19
2022-09-16T11:47:16.626Z,20.25
2022-09-16T11:50:01.443Z,20.32
2022-09-16T11:53:04.443Z,20.32
2022-09-16T11:55:50.370Z,20.35
2022-09-16T11:58:45.388Z,20.29
2022-09-16T12:01:32.372Z,20.27
2022-09-16T12:04:12.365Z,20.26
2022-09-16T12:07:09.778Z,20.18
2022-09-16T12:10:02.017Z,20.14
2022-09-16T12:12:43.168Z,20.10
2022-09-16T12:15:30.163Z,20.03
2022-09-16T12:18:02.123Z,19.99
2022-09-16T12:20:36.997Z,19.91
2022-09-16T12:23:18.546Z,19.87
2022-09-16T12:25:52.734Z,19.82
2022-09-16T12:28:31.391Z,19.77
2022-09-16T12:31:24.428Z,19.71
2022-09-16T12:34:01.844Z,19.64
2022-09-16T12:36:33.854Z,19.59
2022-09-16T12:39:01.304Z,19.56
2022-09-16T12:41:37.348Z,19.49
2022-09-16T12:44:33.629Z,19.48
2022-09-16T12:47:25.757Z,19.49
2022-09-16T12:50:16.345Z,19.54
2022-09-16T12:53:13.645Z,19.58
2022-09-16T12:55:51.796Z,19.65
2022-09-16T12:58:28.035Z,19.64
2022-09-16T13:01:06.212Z,19.62
2022-09-16T13:03:37.320Z,19.59
2022-09-16T13:06:14.395Z,19.50
2022-09-16T13:08:40.862Z,19.45
2022-09-16T13:12:06.666Z,19.38
2022-09-16T13:14:06.152Z,19.38
2022-09-16T13:16:37.076Z,19.37
2022-09-16T13:19:35.269Z,19.40
2022-09-16T13:22:28.749Z,19.50
2022-09-16T13:25:06.635Z,19.65
2022-09-16T13:27:36.671Z,19.73
2022-09-16T13:30:09.388Z,19.83
2022-09-16T13:32:43.457Z,19.92
2022-09-16T13:35:18.929Z,20.00
2022-09-16T13:37:46.300Z,20.10
2022-09-16T13:40:23.898Z,20.15
2022-09-16T13:42:50.627Z,20.26
2022-09-16T13:45:46.505Z,20.33
2022-09-16T13:48:22.547Z,20.41
2022-09-16T13:50:57.194Z,20.47
2022-09-16T13:53:53.256Z,20.47
2022-09-16T13:56:40.736Z,20.49
2022-09-16T13:59:34.098Z,20.49
2022-09-16T14:02:06.781Z,20.51
2022-09-16T14:05:10.770Z,20.50
2022-09-16T14:07:45.370Z,20.50
2022-09-16T14:10:39.666Z,20.45
2022-09-16T14:13:15.622Z,20.40
2022-09-16T14:15:52.340Z,20.32
2022-09-16T14:18:24.032Z,20.24
2022-09-16T14:21:05.543Z,20.15
2022-09-16T14:23:33.732Z,20.13
2022-09-16T14:26:20.843Z,20.08
2022-09-16T14:28:47.848Z,20.13
2022-09-16T14:31:18.672Z,20.13
2022-09-16T14:33:56.520Z,20.16
2022-09-16T14:36:26.890Z,20.20
2022-09-16T14:39:02.355Z,20.22
2022-09-16T14:41:55.889Z,20.25
2022-09-16T14:44:39.473Z,20.27
2022-09-16T14:47:39.805Z,20.29
2022-09-16T14:50:15.718Z,20.36
2022-09-16T14:52:57.190Z,20.38
2022-09-16T14:55:26.854Z,20.45
2022-09-16T14:57:53.186Z,20.49
2022-09-16T15:00:20.074Z,20.53
2022-09-16T15:02:52.934Z,20.59
2022-09-16T15:05:25.115Z,20.64
2022-09-16T15:08:12.684Z,20.70
2022-09-16T15:10:54.949Z,20.77
2022-09-16T15:13:25.588Z,20.84
2022-09-16T15:15:56.040Z,20.88
2022-09-16T15:18:25.134Z,20.92
2022-09-16T15:20:57.026Z,20.96
2022-09-16T15:23:26.401Z,21.00
2022-09-16T15:25:57.185Z,21.01
2022-09-16T15:28:23.781Z,21.05
2022-09-16T15:30:55.135Z,21.04
2022-09-16T15:33:31.126Z,21.04
2022-09-16T15:36:04.372Z,21.08
2022-09-16T15:38:31.207Z,21.07
2022-09-16T15:41:12.975Z,21.04
2022-09-16T15:43:42.591Z,21.06
2022-09-16T15:46:23.760Z,20.99
2022-09-16T15:49:00.091Z,20.95
2022-09-16T15:51:45.065Z,20.91
2022-09-16T15:54:14.289Z,20.89
2022-09-16T15:57:02.018Z,20.84
2022-09-16T16:00:13.060Z,20.82
2022-09-16T16:03:01.837Z,20.82
2022-09-16T16:05:31.082Z,20.83
2022-09-16T16:07:59.991Z,20.81
2022-09-16T16:10:31.955Z,20.79
2022-09-16T16:13:00.788Z,20.77
2022-09-16T16:15:28.411Z,20.74
2022-09-16T16:17:59.257Z,20.68
2022-09-16T16:20:25.643Z,20.65
2022-09-16T16:22:53.037Z,20.59
2022-09-16T16:25:19.837Z,20.54
2022-09-16T16:27:46.217Z,20.49
2022-09-16T16:30:12.873Z,20.45
2022-09-16T16:32:39.870Z,20.41
2022-09-16T16:35:06.662Z,20.40
2022-09-16T16:37:48.386Z,20.37
2022-09-16T16:40:15.665Z,20.35
2022-09-16T16:42:43.549Z,20.33
2022-09-16T16:45:12.774Z,20.30
2022-09-16T16:47:39.994Z,20.27
2022-09-16T16:50:06.818Z,20.24
2022-09-16T16:52:33.141Z,20.20
2022-09-16T16:54:59.485Z,20.16
2022-09-16T16:57:25.808Z,20.12
2022-09-16T16:59:52.157Z,20.09
2022-09-16T17:02:18.658Z,20.03
2022-09-16T17:04:44.997Z,19.98
2022-09-16T17:07:27.862Z,19.95
2022-09-16T17:09:55.456Z,19.93
2022-09-16T17:12:21.882Z,19.89
2022-09-16T17:14:48.179Z,19.85
2022-09-16T17:17:14.612Z,19.81
2022-09-16T17:19:40.948Z,19.76
2022-09-16T17:22:07.376Z,19.72
2022-09-16T17:24:34.563Z,19.65
2022-09-16T17:27:01.458Z,19.61
2022-09-16T17:29:27.756Z,19.56
2022-09-16T17:31:56.768Z,19.50
2022-09-16T17:34:23.111Z,19.44
2022-09-16T17:36:49.462Z,19.39
2022-09-16T17:39:18.837Z,19.32
2022-09-16T17:41:48.485Z,19.29
2022-09-16T17:44:16.474Z,19.24
2022-09-16T17:46:43.735Z,19.19
2022-09-16T17:49:18.678Z,19.13
2022-09-16T17:51:45.271Z,19.11
2022-09-16T17:54:12.170Z,19.07
2022-09-16T17:56:39.322Z,19.03
2022-09-16T17:59:05.812Z,19.00
2022-09-16T18:01:32.354Z,18.95
2022-09-16T18:03:58.850Z,18.93
2022-09-16T18:06:28.987Z,18.89
2022-09-16T18:08:55.372Z,18.87
2022-09-16T18:11:21.983Z,18.83
2022-09-16T18:13:52.838Z,18.80
2022-09-16T18:16:20.277Z,18.78
2022-09-16T18:18:50.897Z,18.74
2022-09-16T18:21:19.520Z,18.73
2022-09-16T18:23:46.743Z,18.72
2022-09-16T18:26:14.286Z,18.74
2022-09-16T18:29:05.678Z,18.71
2022-09-16T18:31:29.442Z,18.68
2022-09-16T18:33:56.832Z,18.65
2022-09-16T18:36:25.710Z,18.62
2022-09-16T18:38:53.573Z,18.59
2022-09-16T18:41:22.775Z,18.58
2022-09-16T18:43:54.109Z,18.57
2022-09-16T18:46:26.596Z,18.56
2022-09-16T18:48:53.982Z,18.56
2022-09-16T18:51:30.632Z,18.52
2022-09-16T18:54:00.614Z,18.52
2022-09-16T18:56:28.527Z,18.51
2022-09-16T18:59:20.334Z,18.48
2022-09-16T19:01:48.565Z,18.50
2022-09-16T19:04:17.972Z,18.51
2022-09-16T19:06:47.766Z,18.49
2022-09-16T19:09:16.450Z,18.51
2022-09-16T19:11:43.258Z,18.52
2022-09-16T19:14:14.711Z,18.55
2022-09-16T19:16:42.869Z,18.55
2022-09-16T19:19:11.166Z,18.54
2022-09-16T19:21:38.205Z,18.53
2022-09-16T19:24:07.317Z,18.53
2022-09-16T19:26:36.176Z,18.54
2022-09-16T19:29:06.862Z,18.54
2022-09-16T19:31:35.505Z,18.54
2022-09-16T19:34:01.864Z,18.55
2022-09-16T19:36:30.719Z,18.59
2022-09-16T19:38:58.089Z,18.59
2022-09-16T19:41:28.178Z,18.59
2022-09-16T19:43:56.248Z,18.59
2022-09-16T19:46:22.894Z,18.60
2022-09-16T19:48:50.589Z,18.62
2022-09-16T19:51:19.139Z,18.60
2022-09-16T19:53:46.579Z,18.63
2022-09-16T19:56:16.041Z,18.68
2022-09-16T19:58:42.356Z,18.68
2022-09-16T20:01:11.431Z,18.67
2022-09-16T20:03:39.655Z,18.67
2022-09-16T20:06:12.497Z,18.68
2022-09-16T20:08:40.677Z,18.68
2022-09-16T20:11:18.495Z,18.68
2022-09-16T20:13:49.582Z,18.70
2022-09-16T20:16:17.748Z,18.71
2022-09-16T20:18:44.556Z,18.70
2022-09-16T20:21:16.416Z,18.66
2022-09-16T20:23:44.905Z,18.67
2022-09-16T20:26:13.909Z,18.65
2022-09-16T20:28:43.482Z,18.63
2022-09-16T20:31:12.879Z,18.62
2022-09-16T20:33:40.385Z,18.63
2022-09-16T20:36:09.792Z,18.60
2022-09-16T20:38:38.559Z,18.61
2022-09-16T20:41:09.637Z,18.59
2022-09-16T20:43:36.199Z,18.60
2022-09-16T20:46:08.234Z,18.58
2022-09-16T20:48:34.853Z,18.59
2022-09-16T20:51:05.087Z,18.56
2022-09-16T20:53:31.465Z,18.55
2022-09-16T20:56:02.867Z,18.53
2022-09-16T20:58:29.250Z,18.52
2022-09-16T21:00:55.633Z,18.51
2022-09-16T21:03:21.979Z,18.48
2022-09-16T21:05:48.280Z,18.45
2022-09-16T21:08:14.574Z,18.43
2022-09-16T21:10:40.869Z,18.41
2022-09-16T21:13:07.186Z,18.39
2022-09-16T21:15:33.487Z,18.38
2022-09-16T21:17:59.774Z,18.37
2022-09-16T21:20:26.082Z,18.35
2022-09-16T21:22:52.398Z,18.35
2022-09-16T21:25:18.701Z,18.34
2022-09-16T21:27:44.987Z,18.35
2022-09-16T21:30:11.695Z,18.34
2022-09-16T21:32:37.988Z,18.33
2022-09-16T21:35:04.849Z,18.33
2022-09-16T21:37:31.840Z,18.33
2022-09-16T21:39:58.642Z,18.31
2022-09-16T21:42:25.003Z,18.29
2022-09-16T21:44:52.038Z,18.27
2022-09-16T21:47:18.325Z,18.27
2022-09-16T21:49:44.626Z,18.26
2022-09-16T21:52:10.919Z,18.24
2022-09-16T21:54:37.246Z,18.22
2022-09-16T21:57:03.968Z,18.21
2022-09-16T21:59:30.302Z,18.18
2022-09-16T22:02:01.398Z,18.16
2022-09-16T22:04:29.906Z,18.12
2022-09-16T22:06:56.346Z,18.09
2022-09-16T22:09:22.727Z,18.07
2022-09-16T22:11:49.610Z,18.04
2022-09-16T22:14:16.890Z,18.02
2022-09-16T22:16:44.038Z,18.00
2022-09-16T22:19:16.537Z,18.00
2022-09-16T22:21:45.471Z,17.98
2022-09-16T22:24:12.579Z,17.99
2022-09-16T22:26:39.764Z,17.97
2022-09-16T22:29:08.797Z,17.97
2022-09-16T22:31:37.489Z,17.92
2022-09-16T22:34:04.384Z,17.92
2022-09-16T22:36:33.779Z,17.88
2022-09-16T22:39:04.681Z,17.85
2022-09-16T22:41:31.036Z,17.82
2022-09-16T22:43:57.438Z,17.81
2022-09-16T22:46:26.982Z,17.77
2022-09-16T22:48:55.524Z,17.75
2022-09-16T22:51:21.945Z,17.70
2022-09-16T22:53:48.592Z,17.65
2022-09-16T22:56:18.178Z,17.61
2022-09-16T22:58:45.356Z,17.58
2022-09-16T23:01:15.477Z,17.52
2022-09-16T23:03:42.988Z,17.51
2022-09-16T23:06:11.485Z,17.46
2022-09-16T23:08:40.269Z,17.43
2022-09-16T23:11:14.438Z,17.40
2022-09-16T23:13:42.261Z,17.37
2022-09-16T23:16:13.913Z,17.34
2022-09-16T23:18:40.473Z,17.32
2022-09-16T23:21:09.721Z,17.29
2022-09-16T23:23:38.962Z,17.27
2022-09-16T23:26:07.970Z,17.25
2022-09-16T23:28:34.780Z,17.23
2022-09-16T23:31:07.054Z,17.20
2022-09-16T23:33:33.859Z,17.21
2022-09-16T23:36:00.764Z,17.19
2022-09-16T23:38:27.200Z,17.18
2022-09-16T23:40:53.673Z,17.16
2022-09-16T23:43:20.166Z,17.16
2022-09-16T23:45:46.763Z,17.16
2022-09-16T23:48:14.303Z,17.16
2022-09-16T23:50:43.121Z,17.17
2022-09-16T23:53:09.416Z,17.15
2022-09-16T23:55:40.740Z,17.13
2022-09-16T23:58:07.052Z,17.13
